Time;durP1;ratioP1;P1;durP2;ratioP2;P2;SDS_P1;SDS_P2;PMS_P1;PMS_P2;Temp;Humidity;BMP_temperature;BMP_pressure;BME280_temperature;BME280_humidity;BME280_pressure;Samples;Min_cycle;Max_cycle;Signal;HPM_P1;HPM_P2
2021/08/29 00:01:37;;;;;;;5.53;4.88;;;12.90;99.90;;;;;;5059643;28;20056;-96
2021/08/29 00:04:04;;;;;;;7.72;5.85;;;12.90;99.90;;;;;;5066039;28;20033;-95
2021/08/29 00:06:30;;;;;;;7.78;6.03;;;12.90;99.90;;;;;;5079156;28;20068;-96
2021/08/29 00:08:57;;;;;;;7.07;5.90;;;13.00;99.90;;;;;;5059686;28;20106;-96
2021/08/29 00:11:24;;;;;;;11.15;6.00;;;12.80;99.90;;;;;;5057099;28;20056;-96
2021/08/29 00:13:51;;;;;;;8.57;6.03;;;12.80;99.90;;;;;;5057029;28;20135;-96
2021/08/29 00:16:18;;;;;;;10.63;6.65;;;12.90;99.90;;;;;;5057010;28;20412;-96
2021/08/29 00:18:44;;;;;;;15.18;8.52;;;12.90;99.90;;;;;;5056967;28;20040;-96
2021/08/29 00:21:11;;;;;;;17.88;8.43;;;12.90;99.90;;;;;;5056820;28;20515;-95
2021/08/29 00:23:38;;;;;;;9.27;6.78;;;12.90;99.90;;;;;;5056961;28;20053;-96
2021/08/29 00:26:05;;;;;;;12.13;6.78;;;12.90;99.90;;;;;;5056748;28;20052;-95
2021/08/29 00:28:32;;;;;;;8.73;6.30;;;12.90;99.90;;;;;;5053017;28;20064;-96
2021/08/29 00:30:58;;;;;;;10.40;7.10;;;12.80;99.90;;;;;;5053465;28;20056;-96
2021/08/29 00:33:25;;;;;;;17.88;8.95;;;12.90;99.90;;;;;;5053526;28;20045;-96
2021/08/29 00:35:52;;;;;;;11.38;7.43;;;12.90;99.90;;;;;;5053297;28;20053;-95
2021/08/29 00:38:19;;;;;;;16.42;8.63;;;12.80;99.90;;;;;;5053635;28;20061;-96
2021/08/29 00:40:50;;;;;;;17.85;8.52;;;12.90;99.90;;;;;;5053012;28;20405;-95
2021/08/29 00:43:20;;;;;;;16.52;8.50;;;12.90;99.90;;;;;;5053384;28;20169;-96
2021/08/29 00:45:47;;;;;;;9.77;6.32;;;12.80;99.90;;;;;;5053387;28;20053;-96
2021/08/29 00:48:14;;;;;;;10.77;7.25;;;12.90;99.90;;;;;;5053339;28;20044;-96
2021/08/29 00:50:46;;;;;;;9.48;7.15;;;12.70;99.90;;;;;;5053157;28;20507;-96
2021/08/29 00:53:16;;;;;;;8.50;6.68;;;12.70;99.90;;;;;;5053239;28;20141;-96
2021/08/29 00:55:43;;;;;;;8.98;6.90;;;12.70;99.90;;;;;;5053113;28;20437;-96
2021/08/29 00:58:10;;;;;;;16.90;8.38;;;12.80;99.90;;;;;;5053198;28;20051;-96
2021/08/29 01:00:40;;;;;;;13.02;7.47;;;12.70;99.90;;;;;;5052992;28;20057;-96
2021/08/29 01:03:28;;;;;;;11.05;7.50;;;12.70;99.90;;;;;;5053221;28;20094;-96
2021/08/29 01:06:18;;;;;;;6.78;5.82;;;12.70;99.90;;;;;;5052940;28;20099;-96
2021/08/29 01:08:52;;;;;;;6.93;6.13;;;12.80;99.90;;;;;;5052968;28;20061;-96
2021/08/29 01:11:24;;;;;;;8.15;6.40;;;12.80;99.90;;;;;;5052950;28;20045;-96
2021/08/29 01:13:58;;;;;;;8.70;6.50;;;12.80;99.90;;;;;;5053035;28;20230;-96
2021/08/29 01:16:31;;;;;;;9.60;5.65;;;12.80;99.90;;;;;;5052884;28;20049;-96
2021/08/29 01:18:59;;;;;;;6.32;5.13;;;12.70;99.90;;;;;;5052942;28;20075;-96
2021/08/29 01:21:28;;;;;;;6.75;5.50;;;12.70;99.90;;;;;;5052892;28;20131;-96
2021/08/29 01:24:01;;;;;;;6.15;5.10;;;12.60;99.90;;;;;;5071888;28;20133;-96
2021/08/29 01:26:40;;;;;;;5.50;5.10;;;12.60;99.90;;;;;;5059623;28;20131;-96
2021/08/29 01:29:09;;;;;;;6.95;5.43;;;12.70;99.90;;;;;;5052219;28;20116;-96
2021/08/29 01:31:37;;;;;;;6.68;5.63;;;12.70;99.90;;;;;;5052193;28;20136;-95
2021/08/29 01:34:08;;;;;;;8.25;5.82;;;12.80;99.90;;;;;;5052342;28;20045;-96
2021/08/29 01:36:39;;;;;;;9.02;5.47;;;12.80;99.90;;;;;;5052229;28;20155;-95
2021/08/29 01:39:06;;;;;;;11.57;6.30;;;12.80;99.90;;;;;;5052334;28;20136;-95
2021/08/29 01:41:35;;;;;;;5.38;4.70;;;12.70;99.90;;;;;;5052105;28;20076;-96
2021/08/29 01:44:04;;;;;;;5.38;5.07;;;12.70;99.90;;;;;;5052276;28;20136;-96
2021/08/29 01:46:32;;;;;;;5.18;4.78;;;12.70;99.90;;;;;;5051491;28;20052;-95
2021/08/29 01:48:59;;;;;;;9.73;5.60;;;12.80;99.90;;;;;;5052201;28;20052;-95
2021/08/29 01:51:26;;;;;;;6.03;5.07;;;12.70;99.90;;;;;;5052845;28;20429;-96
2021/08/29 01:53:53;;;;;;;5.63;5.13;;;12.70;99.90;;;;;;5055751;28;20041;-96
2021/08/29 01:56:19;;;;;;;5.55;5.00;;;12.80;99.90;;;;;;5055794;28;20132;-96
2021/08/29 01:58:46;;;;;;;6.60;5.70;;;12.70;99.90;;;;;;5055744;28;20049;-95
2021/08/29 02:01:13;;;;;;;7.18;5.53;;;12.60;99.90;;;;;;5055599;28;20569;-95
2021/08/29 02:03:43;;;;;;;6.00;4.78;;;12.60;99.90;;;;;;5055715;28;20059;-96
2021/08/29 02:06:17;;;;;;;6.70;5.03;;;12.60;99.90;;;;;;5055265;28;20053;-96
2021/08/29 02:08:56;;;;;;;5.35;4.82;;;12.60;99.90;;;;;;5056087;28;20053;-96
2021/08/29 02:11:25;;;;;;;8.95;5.47;;;12.60;99.90;;;;;;5055486;28;20049;-96
2021/08/29 02:13:56;;;;;;;5.60;5.10;;;12.60;99.90;;;;;;5055340;28;20053;-95
2021/08/29 02:16:23;;;;;;;10.15;5.32;;;12.60;99.90;;;;;;5055226;28;20136;-96
2021/08/29 02:18:54;;;;;;;6.07;5.53;;;12.60;99.90;;;;;;5055230;28;20053;-96
2021/08/29 02:21:26;;;;;;;5.95;5.45;;;12.60;99.90;;;;;;5055461;28;20131;-96
2021/08/29 02:23:53;;;;;;;5.65;4.43;;;12.50;99.90;;;;;;5055419;28;20041;-96
2021/08/29 02:26:24;;;;;;;6.10;5.10;;;12.60;99.90;;;;;;5055065;28;20139;-96
2021/08/29 02:28:52;;;;;;;5.22;4.72;;;12.60;99.90;;;;;;5055028;28;20053;-96
2021/08/29 02:31:20;;;;;;;5.53;5.03;;;12.60;99.90;;;;;;5055285;28;20061;-95
2021/08/29 02:33:48;;;;;;;7.55;5.35;;;12.70;99.90;;;;;;5055321;28;20083;-95
2021/08/29 02:36:16;;;;;;;7.45;5.43;;;12.70;99.90;;;;;;5054925;28;20103;-95
2021/08/29 02:38:45;;;;;;;4.97;4.57;;;12.70;99.90;;;;;;5054990;28;20059;-96
2021/08/29 02:41:12;;;;;;;4.95;4.50;;;12.70;99.90;;;;;;5061862;28;20108;-94
2021/08/29 02:43:40;;;;;;;5.65;5.15;;;12.70;99.90;;;;;;5072162;28;20049;-96
2021/08/29 02:46:08;;;;;;;5.60;5.13;;;12.70;99.90;;;;;;5056964;28;20053;-95
2021/08/29 02:48:35;;;;;;;5.03;4.63;;;12.70;99.90;;;;;;5054808;28;20041;-96
2021/08/29 02:51:02;;;;;;;6.72;4.78;;;12.80;99.90;;;;;;5054666;28;20055;-95
2021/08/29 02:53:29;;;;;;;4.63;4.13;;;12.80;99.90;;;;;;5054849;28;20115;-95
2021/08/29 02:55:59;;;;;;;4.80;4.50;;;12.80;99.90;;;;;;5054722;28;20131;-95
2021/08/29 02:58:27;;;;;;;5.18;4.68;;;12.70;99.90;;;;;;5054613;28;20135;-95
2021/08/29 03:00:54;;;;;;;5.15;4.65;;;12.70;99.90;;;;;;5054548;28;20135;-96
2021/08/29 03:03:21;;;;;;;4.50;4.30;;;12.70;99.90;;;;;;5054592;28;20045;-96
2021/08/29 03:05:48;;;;;;;5.88;4.90;;;12.70;99.90;;;;;;5054321;28;20053;-96
2021/08/29 03:08:15;;;;;;;5.13;4.68;;;12.70;99.90;;;;;;5054454;28;20051;-95
2021/08/29 03:10:42;;;;;;;4.38;4.10;;;12.70;99.90;;;;;;5054460;28;20052;-96
2021/08/29 03:13:10;;;;;;;4.40;4.00;;;12.70;99.90;;;;;;5054523;28;20041;-95
2021/08/29 03:15:37;;;;;;;6.38;4.03;;;12.60;99.90;;;;;;5054236;28;20053;-95
2021/08/29 03:18:04;;;;;;;4.63;4.22;;;12.60;99.90;;;;;;5054244;28;20045;-95
2021/08/29 03:20:30;;;;;;;6.43;4.95;;;12.50;99.90;;;;;;5054297;28;20135;-96
2021/08/29 03:22:58;;;;;;;4.78;4.38;;;12.50;99.90;;;;;;5054228;28;20493;-95
2021/08/29 03:25:25;;;;;;;4.75;4.32;;;12.50;99.90;;;;;;5054654;28;20051;-95
2021/08/29 03:27:52;;;;;;;4.85;4.00;;;12.50;99.90;;;;;;5056142;28;20063;-95
2021/08/29 03:30:19;;;;;;;4.80;4.25;;;12.50;99.90;;;;;;5057538;28;20048;-95
2021/08/29 03:32:46;;;;;;;6.15;4.03;;;12.50;99.90;;;;;;5057185;28;20058;-95
2021/08/29 03:35:13;;;;;;;5.00;4.50;;;12.50;99.90;;;;;;5057453;28;20051;-95
2021/08/29 03:37:43;;;;;;;4.72;4.40;;;12.50;99.90;;;;;;5057353;28;20051;-95
2021/08/29 03:40:11;;;;;;;5.75;4.93;;;12.50;99.90;;;;;;5057348;28;20146;-96
2021/08/29 03:42:38;;;;;;;6.80;4.63;;;12.50;99.90;;;;;;5057261;28;20048;-95
2021/08/29 03:45:07;;;;;;;5.55;4.22;;;12.40;99.90;;;;;;5057101;28;20060;-95
2021/08/29 03:47:37;;;;;;;4.38;4.00;;;12.40;99.90;;;;;;5057683;28;20135;-95
2021/08/29 03:50:05;;;;;;;5.60;5.10;;;12.50;99.90;;;;;;5057258;28;20044;-95
2021/08/29 03:52:33;;;;;;;3.92;3.72;;;12.40;99.90;;;;;;5056852;28;20139;-95
2021/08/29 03:55:00;;;;;;;5.00;4.32;;;12.40;99.90;;;;;;5057049;28;20048;-95
2021/08/29 03:57:27;;;;;;;4.53;4.05;;;12.40;99.90;;;;;;5057242;28;20049;-95
2021/08/29 03:59:54;;;;;;;5.07;3.70;;;12.30;99.90;;;;;;5064450;28;20099;-93
2021/08/29 04:02:21;;;;;;;7.45;4.07;;;12.20;99.90;;;;;;5073839;28;20060;-95
2021/08/29 04:04:47;;;;;;;5.28;4.10;;;12.10;99.90;;;;;;5058198;28;20060;-95
2021/08/29 04:07:15;;;;;;;4.47;3.97;;;12.10;99.90;;;;;;5056685;28;20416;-95
2021/08/29 04:09:43;;;;;;;7.28;5.50;;;12.20;99.90;;;;;;5056716;28;20051;-94
2021/08/29 04:12:12;;;;;;;5.30;4.85;;;12.20;99.90;;;;;;5057093;28;20499;-95
2021/08/29 04:14:40;;;;;;;6.35;5.15;;;12.20;99.90;;;;;;5055995;28;20044;-94
2021/08/29 04:17:08;;;;;;;8.38;5.57;;;12.30;99.90;;;;;;5056760;28;20548;-95
2021/08/29 04:19:36;;;;;;;4.00;3.80;;;12.20;99.90;;;;;;5056859;28;20515;-95
2021/08/29 04:22:03;;;;;;;4.82;4.30;;;12.30;99.90;;;;;;5056665;28;20052;-95
2021/08/29 04:24:30;;;;;;;8.70;5.70;;;12.30;99.90;;;;;;5056383;28;20134;-95
2021/08/29 04:26:57;;;;;;;4.78;4.40;;;12.20;99.90;;;;;;5056238;28;20513;-94
2021/08/29 04:29:24;;;;;;;5.93;4.80;;;12.20;99.90;;;;;;5056212;28;20127;-95
2021/08/29 04:31:56;;;;;;;7.35;5.05;;;12.30;99.90;;;;;;5056528;28;20059;-95
2021/08/29 04:34:23;;;;;;;6.13;5.50;;;12.30;99.90;;;;;;5056540;28;20123;-94
2021/08/29 04:36:50;;;;;;;6.30;5.70;;;12.40;99.90;;;;;;5056246;28;20071;-96
2021/08/29 04:39:16;;;;;;;6.53;5.43;;;12.40;99.90;;;;;;5056597;28;20123;-94
2021/08/29 04:41:43;;;;;;;4.20;4.00;;;12.50;99.90;;;;;;5056354;28;20056;-95
2021/08/29 04:44:11;;;;;;;4.93;4.47;;;12.50;99.90;;;;;;5056454;28;20044;-95
2021/08/29 04:46:38;;;;;;;9.25;5.03;;;12.50;99.90;;;;;;5056018;28;20147;-96
2021/08/29 04:49:05;;;;;;;4.90;4.50;;;12.60;99.90;;;;;;5056179;28;20045;-95
2021/08/29 04:51:33;;;;;;;5.53;5.10;;;12.50;99.90;;;;;;5055920;28;20052;-95
2021/08/29 04:53:59;;;;;;;5.90;4.93;;;12.60;99.90;;;;;;5055857;28;20489;-94
2021/08/29 04:56:26;;;;;;;9.88;6.38;;;12.60;99.90;;;;;;5056023;28;20064;-94
2021/08/29 04:58:53;;;;;;;7.18;5.47;;;12.60;99.90;;;;;;5056209;28;20053;-94
2021/08/29 05:01:20;;;;;;;8.25;4.30;;;12.60;99.90;;;;;;5056204;28;20148;-96
2021/08/29 05:03:47;;;;;;;9.68;5.65;;;12.70;99.90;;;;;;5056025;28;20053;-95
2021/08/29 05:06:14;;;;;;;5.70;4.32;;;12.70;99.90;;;;;;5056171;28;20134;-96
2021/08/29 05:08:41;;;;;;;6.80;5.85;;;12.70;99.90;;;;;;5055792;28;20052;-96
2021/08/29 05:11:08;;;;;;;7.38;6.03;;;12.70;99.90;;;;;;5055955;28;20045;-96
2021/08/29 05:13:35;;;;;;;5.70;5.30;;;12.70;99.90;;;;;;5056091;28;20450;-94
2021/08/29 05:16:01;;;;;;;5.57;4.47;;;12.80;99.90;;;;;;5055966;28;20140;-96
2021/08/29 05:18:30;;;;;;;5.32;4.78;;;12.80;99.90;;;;;;5061210;28;20052;-94
2021/08/29 05:20:56;;;;;;;4.50;4.10;;;12.90;99.90;;;;;;5075912;28;20064;-95
2021/08/29 05:23:32;;;;;;;7.80;3.97;;;12.90;99.90;;;;;;5060925;28;20136;-94
2021/08/29 05:25:59;;;;;;;3.88;3.60;;;13.00;99.90;;;;;;5055648;28;20052;-94
2021/08/29 05:28:26;;;;;;;8.32;3.80;;;13.10;99.90;;;;;;5059718;28;20087;-94
2021/08/29 05:30:53;;;;;;;3.50;3.30;;;13.20;99.90;;;;;;5060177;28;20139;-94
2021/08/29 05:33:19;;;;;;;4.05;3.28;;;13.30;99.90;;;;;;5059893;28;20135;-95
2021/08/29 05:35:46;;;;;;;4.28;3.97;;;13.30;99.90;;;;;;5059821;28;20049;-95
2021/08/29 05:38:13;;;;;;;4.03;3.58;;;13.30;99.90;;;;;;5059901;28;20059;-94
2021/08/29 05:40:39;;;;;;;5.10;3.45;;;13.40;99.90;;;;;;5059815;28;20044;-94
2021/08/29 05:43:06;;;;;;;5.28;3.88;;;13.50;99.90;;;;;;5059891;28;20175;-94
2021/08/29 05:45:33;;;;;;;6.85;4.32;;;13.50;99.90;;;;;;5062287;28;20139;-94
2021/08/29 05:48:00;;;;;;;4.10;3.80;;;13.40;99.90;;;;;;5059946;28;20569;-95
2021/08/29 05:50:26;;;;;;;3.97;3.15;;;13.50;99.90;;;;;;5060407;28;20166;-94
2021/08/29 05:52:53;;;;;;;3.75;3.55;;;13.50;99.90;;;;;;5059820;28;20144;-94
2021/08/29 05:55:20;;;;;;;3.60;3.30;;;13.40;99.90;;;;;;5059576;28;20049;-95
2021/08/29 05:57:51;;;;;;;5.55;3.47;;;13.40;99.90;;;;;;5060497;28;20048;-94
2021/08/29 06:00:19;;;;;;;3.08;2.88;;;13.60;99.90;;;;;;5060025;28;20139;-94
2021/08/29 06:02:46;;;;;;;6.07;2.65;;;13.70;99.90;;;;;;5059409;28;20131;-94
2021/08/29 06:05:14;;;;;;;2.65;2.40;;;13.80;99.90;;;;;;5060559;28;20052;-94
2021/08/29 06:07:40;;;;;;;2.70;2.50;;;14.00;99.90;;;;;;5060555;28;20408;-94
2021/08/29 06:10:09;;;;;;;2.28;2.17;;;14.00;99.90;;;;;;5061704;28;20055;-95
2021/08/29 06:12:35;;;;;;;2.30;2.20;;;14.10;99.90;;;;;;5059487;28;20120;-94
2021/08/29 06:15:03;;;;;;;1.88;1.77;;;14.20;99.90;;;;;;5061562;28;20128;-93
2021/08/29 06:17:30;;;;;;;2.20;2.10;;;14.40;99.90;;;;;;5062081;28;20113;-94
2021/08/29 06:19:56;;;;;;;2.05;1.95;;;14.40;99.90;;;;;;5062171;28;20135;-94
2021/08/29 06:22:23;;;;;;;2.78;1.90;;;14.50;99.90;;;;;;5060168;28;20139;-94
2021/08/29 06:24:50;;;;;;;2.97;1.50;;;14.60;99.90;;;;;;5060818;28;20484;-94
2021/08/29 06:27:17;;;;;;;3.63;2.08;;;14.60;99.90;;;;;;5059556;28;20140;-93
2021/08/29 06:29:44;;;;;;;1.70;1.58;;;14.60;99.90;;;;;;5058200;28;20052;-93
2021/08/29 06:32:10;;;;;;;2.10;2.00;;;14.60;99.90;;;;;;5059146;28;20048;-93
2021/08/29 06:34:37;;;;;;;1.95;1.85;;;14.70;99.90;;;;;;5061521;28;20049;-93
2021/08/29 06:37:04;;;;;;;3.53;2.15;;;14.60;99.90;;;;;;5064417;28;20059;-94
2021/08/29 06:39:31;;;;;;;5.82;2.50;;;14.80;99.90;;;;;;5082254;28;20063;-93
2021/08/29 06:41:58;;;;;;;4.05;2.03;;;14.90;99.90;;;;;;5068332;28;20409;-91
2021/08/29 06:44:25;;;;;;;3.83;1.75;;;14.90;99.90;;;;;;5074749;28;20048;-93
2021/08/29 06:46:51;;;;;;;1.92;1.80;;;14.90;99.90;;;;;;5057247;28;20082;-92
2021/08/29 06:49:18;;;;;;;1.90;1.80;;;15.00;99.90;;;;;;5057731;28;20070;-93
2021/08/29 06:51:45;;;;;;;2.65;1.80;;;15.00;99.90;;;;;;5057171;28;20135;-90
2021/08/29 06:54:13;;;;;;;1.75;1.65;;;15.10;99.90;;;;;;5057466;28;20071;-93
2021/08/29 06:56:41;;;;;;;1.90;1.80;;;15.00;99.90;;;;;;5057224;28;20079;-90
2021/08/29 06:59:08;;;;;;;2.05;1.95;;;14.90;99.90;;;;;;5057857;28;20131;-93
2021/08/29 07:01:34;;;;;;;5.40;2.13;;;14.90;99.90;;;;;;5057319;28;20044;-93
2021/08/29 07:04:02;;;;;;;3.58;2.30;;;15.00;99.90;;;;;;5058013;28;20056;-93
2021/08/29 07:06:29;;;;;;;2.42;2.22;;;14.90;99.90;;;;;;5058917;28;20056;-93
2021/08/29 07:08:55;;;;;;;2.90;2.70;;;15.00;99.90;;;;;;5057550;28;20075;-93
2021/08/29 07:11:22;;;;;;;3.55;2.45;;;15.10;99.90;;;;;;5056976;28;20527;-93
2021/08/29 07:13:49;;;;;;;2.15;1.98;;;15.10;99.90;;;;;;5057076;28;20527;-93
2021/08/29 07:16:15;;;;;;;1.70;1.70;;;15.10;99.90;;;;;;5057796;28;20135;-93
2021/08/29 07:18:42;;;;;;;3.17;2.08;;;15.30;99.90;;;;;;5057205;28;20053;-93
2021/08/29 07:21:09;;;;;;;2.25;2.10;;;15.30;99.90;;;;;;5057123;28;20076;-92
2021/08/29 07:23:36;;;;;;;2.15;2.05;;;15.40;99.90;;;;;;5056846;28;20056;-93
2021/08/29 07:26:02;;;;;;;2.03;1.92;;;15.30;99.90;;;;;;5056414;28;20131;-92
2021/08/29 07:28:29;;;;;;;2.30;2.20;;;15.30;99.90;;;;;;5010373;28;1121927;-93
2021/08/29 07:30:56;;;;;;;2.25;2.15;;;15.20;99.90;;;;;;5048458;28;20052;-93
2021/08/29 07:33:23;;;;;;;3.35;2.25;;;15.20;99.90;;;;;;5057825;28;20501;-93
2021/08/29 07:35:50;;;;;;;2.65;1.80;;;15.50;99.90;;;;;;5057817;28;20064;-91
2021/08/29 07:38:17;;;;;;;2.22;1.77;;;15.70;99.90;;;;;;5057565;28;20059;-93
2021/08/29 07:40:43;;;;;;;2.53;1.75;;;15.90;99.90;;;;;;5057351;28;20412;-92
2021/08/29 07:43:10;;;;;;;1.83;1.73;;;16.10;99.90;;;;;;5057927;28;20139;-93
2021/08/29 07:45:36;;;;;;;1.98;1.88;;;16.20;99.90;;;;;;5057635;28;20064;-91
2021/08/29 07:48:04;;;;;;;1.70;1.50;;;16.30;99.90;;;;;;5057550;28;20134;-92
2021/08/29 07:50:30;;;;;;;1.05;1.05;;;16.50;99.90;;;;;;5056539;28;20136;-93
2021/08/29 07:52:57;;;;;;;2.47;1.23;;;17.00;99.90;;;;;;5057871;28;20055;-92
2021/08/29 07:55:24;;;;;;;1.90;0.98;;;17.40;99.90;;;;;;5060516;28;20072;-92
2021/08/29 07:57:51;;;;;;;2.03;1.02;;;17.90;99.90;;;;;;5079174;28;20052;-92
2021/08/29 08:00:18;;;;;;;2.53;1.00;;;17.90;99.90;;;;;;5072543;28;20139;-90
2021/08/29 08:02:45;;;;;;;1.23;0.73;;;18.30;99.90;;;;;;5056976;28;20049;-89
2021/08/29 08:05:12;;;;;;;0.93;0.70;;;18.40;99.90;;;;;;5057295;28;20086;-89
2021/08/29 08:07:39;;;;;;;0.57;0.57;;;18.80;99.90;;;;;;5056837;28;20161;-89
2021/08/29 08:10:06;;;;;;;1.60;0.60;;;19.00;99.90;;;;;;5057002;28;20064;-89
2021/08/29 08:12:33;;;;;;;0.93;0.60;;;19.10;99.90;;;;;;5057135;28;20128;-89
2021/08/29 08:14:59;;;;;;;0.60;0.60;;;19.10;99.90;;;;;;5057611;28;20064;-89
2021/08/29 08:17:26;;;;;;;0.80;0.52;;;19.20;99.90;;;;;;5056720;28;20144;-89
2021/08/29 08:19:53;;;;;;;1.27;0.90;;;19.00;99.90;;;;;;5057498;28;20048;-89
2021/08/29 08:22:20;;;;;;;0.90;0.80;;;18.90;99.90;;;;;;5056517;28;20113;-88
2021/08/29 08:24:47;;;;;;;0.68;0.60;;;18.90;99.90;;;;;;5056625;28;20136;-88
2021/08/29 08:27:13;;;;;;;0.75;0.55;;;18.80;99.90;;;;;;5056401;28;20094;-88
2021/08/29 08:29:40;;;;;;;0.77;0.77;;;18.70;99.90;;;;;;5056290;28;20585;-89
2021/08/29 08:32:07;;;;;;;1.05;0.90;;;18.60;99.90;;;;;;5056735;28;20413;-90
2021/08/29 08:34:33;;;;;;;1.35;0.70;;;18.60;99.90;;;;;;5056146;28;20052;-89
2021/08/29 08:37:00;;;;;;;1.25;0.70;;;18.60;99.90;;;;;;5056001;28;20054;-90
2021/08/29 08:39:27;;;;;;;1.00;1.00;;;18.30;99.90;;;;;;5056458;28;20048;-89
2021/08/29 08:41:54;;;;;;;2.63;2.35;;;18.30;99.90;;;;;;5056569;28;20408;-88
2021/08/29 08:44:20;;;;;;;2.17;2.08;;;18.20;99.90;;;;;;5056299;28;20135;-89
2021/08/29 08:46:47;;;;;;;1.65;1.55;;;18.00;99.90;;;;;;5055891;28;20432;-89
2021/08/29 08:49:17;;;;;;;1.85;0.90;;;17.80;99.90;;;;;;5056268;28;20059;-90
2021/08/29 08:51:46;;;;;;;1.35;0.73;;;17.50;99.90;;;;;;5056234;28;20048;-89
2021/08/29 08:54:16;;;;;;;0.98;0.80;;;17.20;99.90;;;;;;5056371;28;20070;-89
2021/08/29 08:56:43;;;;;;;1.10;0.70;;;17.00;99.90;;;;;;5056338;28;20056;-88
2021/08/29 08:59:10;;;;;;;3.05;0.68;;;16.70;99.90;;;;;;5056499;28;20481;-90
2021/08/29 09:01:37;;;;;;;0.90;0.90;;;16.50;99.90;;;;;;5055800;28;20139;-91
2021/08/29 09:04:05;;;;;;;1.40;1.23;;;16.30;99.90;;;;;;5056435;28;20052;-90
2021/08/29 09:06:35;;;;;;;1.92;1.05;;;16.10;99.90;;;;;;5056394;28;20044;-91
2021/08/29 09:09:03;;;;;;;1.73;1.00;;;16.00;99.90;;;;;;5057037;28;20053;-91
2021/08/29 09:11:40;;;;;;;1.13;0.90;;;15.80;99.90;;;;;;5060215;28;20143;-91
2021/08/29 09:14:09;;;;;;;3.53;0.88;;;15.80;99.90;;;;;;5072693;28;20056;-91
2021/08/29 09:16:36;;;;;;;3.13;0.70;;;15.70;99.90;;;;;;5093505;28;20036;-90
2021/08/29 09:19:05;;;;;;;1.23;1.13;;;15.60;99.90;;;;;;5068278;28;20505;-88
2021/08/29 09:21:36;;;;;;;2.05;1.25;;;15.60;99.90;;;;;;5055661;28;20563;-91
2021/08/29 09:24:09;;;;;;;2.55;1.17;;;15.50;99.90;;;;;;5055734;28;20041;-90
2021/08/29 09:26:42;;;;;;;3.33;0.82;;;15.50;99.90;;;;;;5055334;28;20076;-91
2021/08/29 09:29:21;;;;;;;1.38;1.27;;;15.50;99.90;;;;;;5055304;28;20060;-91
2021/08/29 09:31:50;;;;;;;3.25;1.10;;;15.50;99.90;;;;;;5055949;28;20048;-91
2021/08/29 09:34:20;;;;;;;3.22;1.00;;;15.60;99.90;;;;;;5056040;28;20561;-91
2021/08/29 09:36:49;;;;;;;1.08;0.93;;;15.60;99.90;;;;;;5055538;28;20059;-91
2021/08/29 09:39:18;;;;;;;1.95;1.10;;;15.70;99.90;;;;;;5055469;28;20067;-91
2021/08/29 09:41:46;;;;;;;1.58;1.05;;;15.90;99.90;;;;;;5055720;28;20052;-91
2021/08/29 09:44:18;;;;;;;2.72;0.75;;;16.00;99.90;;;;;;5055907;28;20059;-91
2021/08/29 09:46:54;;;;;;;1.50;0.95;;;16.10;99.90;;;;;;5055659;28;20056;-91
2021/08/29 09:49:35;;;;;;;1.25;1.15;;;16.10;99.90;;;;;;5055705;28;20404;-91
2021/08/29 09:52:08;;;;;;;3.17;1.25;;;16.20;99.90;;;;;;5055504;28;20048;-91
2021/08/29 09:54:44;;;;;;;0.90;0.60;;;16.30;99.90;;;;;;5055676;28;20472;-91
2021/08/29 09:57:13;;;;;;;0.60;0.60;;;16.40;99.90;;;;;;5057329;28;20044;-91
2021/08/29 09:59:47;;;;;;;1.90;0.80;;;16.50;99.90;;;;;;5055857;28;20143;-90
2021/08/29 10:02:25;;;;;;;1.27;0.63;;;16.60;99.90;;;;;;5055288;28;20493;-90
2021/08/29 10:05:15;;;;;;;1.10;0.80;;;16.60;99.90;;;;;;5055732;28;20053;-90
2021/08/29 10:07:58;;;;;;;2.03;0.70;;;16.70;99.90;;;;;;5055571;28;20056;-90
2021/08/29 10:10:28;;;;;;;0.50;0.50;;;17.00;99.90;;;;;;5055464;28;20489;-90
2021/08/29 10:12:56;;;;;;;0.50;0.50;;;17.10;99.90;;;;;;5056992;28;20048;-91
2021/08/29 10:15:25;;;;;;;2.40;0.43;;;17.30;99.90;;;;;;5059006;28;20497;-91
2021/08/29 10:17:56;;;;;;;1.35;0.80;;;17.40;99.90;;;;;;5059272;28;20052;-88
2021/08/29 10:20:25;;;;;;;0.63;0.50;;;17.30;99.90;;;;;;5059099;28;20061;-88
2021/08/29 10:22:52;;;;;;;1.13;0.50;;;17.10;99.90;;;;;;5059007;28;20592;-87
2021/08/29 10:25:20;;;;;;;2.67;0.70;;;17.10;99.90;;;;;;5059247;28;20127;-88
2021/08/29 10:27:59;;;;;;;0.60;0.30;;;17.10;99.90;;;;;;5058839;28;20493;-88
2021/08/29 10:30:26;;;;;;;1.48;0.57;;;17.00;99.90;;;;;;5058895;28;20048;-89
2021/08/29 10:33:00;;;;;;;0.90;0.70;;;16.80;99.90;;;;;;5059385;28;20056;-87
2021/08/29 10:35:27;;;;;;;;;;;16.80;99.90;;;;;;5077870;28;20100;-88
2021/08/29 10:37:54;;;;;;;2.65;0.60;;;16.80;99.90;;;;;;5060146;28;20325;-87
2021/08/29 10:40:22;;;;;;;3.65;0.82;;;16.80;99.90;;;;;;5058585;28;20401;-87
2021/08/29 10:42:50;;;;;;;1.48;0.90;;;16.70;99.90;;;;;;5058311;28;20127;-87
2021/08/29 10:45:17;;;;;;;0.63;0.60;;;16.60;99.90;;;;;;5058408;28;20055;-87
2021/08/29 10:47:45;;;;;;;2.13;0.82;;;16.60;99.90;;;;;;5058220;28;20048;-86
2021/08/29 10:50:18;;;;;;;1.23;0.70;;;16.50;99.90;;;;;;5058110;28;20155;-86
2021/08/29 10:52:45;;;;;;;1.05;0.57;;;16.40;99.90;;;;;;5058240;28;20060;-87
2021/08/29 10:55:20;;;;;;;1.67;0.90;;;16.40;99.90;;;;;;5058149;28;20052;-87
2021/08/29 10:57:49;;;;;;;1.23;0.55;;;16.40;99.90;;;;;;5058035;28;20131;-86
2021/08/29 11:00:24;;;;;;;9.35;0.68;;;16.40;99.90;;;;;;5058191;28;20041;-86
2021/08/29 11:02:52;;;;;;;0.47;0.40;;;16.20;99.90;;;;;;5058463;28;20060;-86
2021/08/29 11:05:29;;;;;;;1.95;0.50;;;16.10;99.90;;;;;;5057967;28;20101;-86
2021/08/29 11:07:57;;;;;;;2.15;0.50;;;15.90;99.90;;;;;;5057829;28;20504;-87
2021/08/29 11:10:41;;;;;;;0.40;0.40;;;15.90;99.90;;;;;;5057971;28;20060;-85
2021/08/29 11:13:27;;;;;;;0.77;0.77;;;16.00;99.90;;;;;;5058102;28;20484;-88
2021/08/29 11:16:09;;;;;;;1.33;0.50;;;16.00;99.90;;;;;;5057785;28;20052;-86
2021/08/29 11:19:01;;;;;;;1.27;0.60;;;16.10;99.90;;;;;;5057804;28;20524;-87
2021/08/29 11:21:34;;;;;;;0.28;0.28;;;16.20;99.90;;;;;;5058009;28;20075;-87
2021/08/29 11:24:01;;;;;;;;;;;16.30;99.90;;;;;;5057176;28;20048;-87
2021/08/29 11:26:35;;;;;;;0.30;0.30;;;16.50;99.90;;;;;;5057584;28;19920;-88
2021/08/29 11:29:39;;;;;;;0.98;0.40;;;16.60;99.90;;;;;;5057339;28;20139;-87
2021/08/29 11:32:09;;;;;;;;;;;16.80;99.90;;;;;;5057839;28;20044;-87
2021/08/29 11:34:36;;;;;;;2.03;1.92;;;16.80;99.90;;;;;;5057411;28;19975;-87
2021/08/29 11:37:23;;;;;;;6.38;5.97;;;16.70;99.90;;;;;;5057473;28;20048;-87
2021/08/29 11:40:13;;;;;;;3.35;3.25;;;16.30;99.90;;;;;;5057966;28;20047;-87
2021/08/29 11:42:40;;;;;;;1.95;1.42;;;16.20;99.90;;;;;;5057317;28;20044;-87
2021/08/29 11:45:11;;;;;;;3.95;3.65;;;16.00;99.90;;;;;;5057285;28;20131;-87
2021/08/29 11:47:40;;;;;;;2.58;1.00;;;15.90;99.90;;;;;;5057336;28;20125;-87
2021/08/29 11:50:10;;;;;;;6.55;5.22;;;15.80;99.90;;;;;;5057390;28;20055;-88
2021/08/29 11:52:39;;;;;;;1.90;1.40;;;15.70;99.90;;;;;;5058020;28;20048;-87
2021/08/29 11:55:12;;;;;;;3.63;2.10;;;15.70;99.90;;;;;;5073673;28;20049;-87
2021/08/29 11:57:50;;;;;;;2.75;2.65;;;15.70;99.90;;;;;;5057966;28;20047;-89
2021/08/29 12:00:19;;;;;;;3.53;1.60;;;15.60;99.90;;;;;;5057052;28;20055;-87
2021/08/29 12:02:47;;;;;;;2.25;1.60;;;15.70;99.90;;;;;;5056692;28;20051;-87
2021/08/29 12:05:16;;;;;;;1.50;1.42;;;15.60;99.90;;;;;;5056776;28;20059;-86
2021/08/29 12:08:01;;;;;;;1.65;1.55;;;15.60;99.90;;;;;;5056727;28;20068;-86
2021/08/29 12:10:29;;;;;;;2.25;1.42;;;15.70;99.90;;;;;;5056824;28;20497;-88
2021/08/29 12:12:57;;;;;;;1.20;1.20;;;15.70;99.90;;;;;;5056812;28;20055;-88
2021/08/29 12:15:26;;;;;;;1.67;1.25;;;15.80;99.90;;;;;;5056776;28;20699;-87
2021/08/29 12:18:01;;;;;;;2.42;1.38;;;15.80;99.90;;;;;;5056958;28;20113;-87
2021/08/29 12:20:29;;;;;;;1.88;1.88;;;15.80;99.90;;;;;;5056511;28;20135;-87
2021/08/29 12:23:07;;;;;;;1.42;1.40;;;15.90;99.90;;;;;;5056542;28;20074;-88
2021/08/29 12:25:38;;;;;;;1.77;1.33;;;16.00;99.90;;;;;;5056980;28;20056;-86
2021/08/29 12:28:05;;;;;;;1.38;1.38;;;16.00;99.90;;;;;;5052130;28;20061;-88
2021/08/29 12:30:32;;;;;;;2.08;1.58;;;15.90;99.90;;;;;;5053415;28;20055;-87
2021/08/29 12:33:11;;;;;;;1.52;1.00;;;16.00;99.90;;;;;;5053184;28;20055;-88
2021/08/29 12:35:43;;;;;;;0.90;0.70;;;16.00;99.90;;;;;;5052657;28;20048;-86
2021/08/29 12:38:21;;;;;;;3.47;0.95;;;16.10;99.90;;;;;;5052939;28;20053;-87
2021/08/29 12:40:48;;;;;;;0.70;0.70;;;16.20;99.90;;;;;;5052484;28;20096;-88
2021/08/29 12:43:15;;;;;;;0.60;0.60;;;16.30;99.90;;;;;;5054605;28;20049;-88
2021/08/29 12:45:42;;;;;;;0.98;0.90;;;16.30;99.90;;;;;;5052589;28;20063;-88
2021/08/29 12:48:10;;;;;;;0.80;0.77;;;16.40;99.90;;;;;;5052832;28;20045;-88
2021/08/29 12:50:47;;;;;;;3.45;0.55;;;16.60;99.90;;;;;;5052753;28;20140;-88
2021/08/29 12:53:15;;;;;;;0.43;0.43;;;16.60;99.90;;;;;;5052905;28;20051;-88
2021/08/29 12:55:52;;;;;;;0.57;0.55;;;16.60;99.90;;;;;;5052922;28;20087;-87
2021/08/29 12:58:39;;;;;;;1.30;0.63;;;16.70;99.90;;;;;;5053332;28;20060;-88